sensor_id;sensor_type;location;lat;lon;timestamp;pressure;altitude;pressure_sealevel;temperature;humidity
11621;BME280;5866;49.094;11.900;2023-12-07T00:00:44;96362.53;;;4.47;100.00
11621;BME280;5866;49.094;11.900;2023-12-07T00:03:11;96368.88;;;4.44;100.00
11621;BME280;5866;49.094;11.900;2023-12-07T00:05:40;96366.63;;;4.29;100.00
11621;BME280;5866;49.094;11.900;2023-12-07T00:08:09;96374.25;;;4.32;100.00
11621;BME280;5866;49.094;11.900;2023-12-07T00:10:37;96376.88;;;4.43;100.00
11621;BME280;5866;49.094;11.900;2023-12-07T00:13:04;96379.59;;;4.63;100.00
11621;BME280;5866;49.094;11.900;2023-12-07T00:15:32;96385.63;;;3.53;100.00
11621;BME280;5866;49.094;11.900;2023-12-07T00:18:00;96382.59;;;3.70;100.00
11621;BME280;5866;49.094;11.900;2023-12-07T00:20:29;96384.50;;;2.99;100.00
11621;BME280;5866;49.094;11.900;2023-12-07T00:22:58;96383.66;;;3.90;100.00
11621;BME280;5866;49.094;11.900;2023-12-07T00:25:26;96385.56;;;3.31;100.00
11621;BME280;5866;49.094;11.900;2023-12-07T00:27:53;96390.72;;;3.09;100.00
11621;BME280;5866;49.094;11.900;2023-12-07T00:30:21;96392.16;;;3.13;100.00
11621;BME280;5866;49.094;11.900;2023-12-07T00:32:49;96390.00;;;3.87;100.00
11621;BME280;5866;49.094;11.900;2023-12-07T00:35:16;96392.75;;;3.97;100.00
11621;BME280;5866;49.094;11.900;2023-12-07T00:37:48;96386.44;;;4.22;100.00
11621;BME280;5866;49.094;11.900;2023-12-07T00:40:18;96389.16;;;4.42;100.00
11621;BME280;5866;49.094;11.900;2023-12-07T00:42:45;96386.88;;;4.60;100.00
11621;BME280;5866;49.094;11.900;2023-12-07T00:45:13;96389.50;;;4.71;100.00
11621;BME280;5866;49.094;11.900;2023-12-07T00:47:41;96397.38;;;4.71;100.00
11621;BME280;5866;49.094;11.900;2023-12-07T00:50:12;96405.47;;;3.68;100.00
11621;BME280;5866;49.094;11.900;2023-12-07T00:52:40;96395.03;;;4.46;100.00
11621;BME280;5866;49.094;11.900;2023-12-07T00:55:08;96393.09;;;4.59;100.00
11621;BME280;5866;49.094;11.900;2023-12-07T00:57:39;96397.06;;;3.17;100.00
11621;BME280;5866;49.094;11.900;2023-12-07T01:00:08;96397.38;;;3.37;100.00
11621;BME280;5866;49.094;11.900;2023-12-07T01:02:36;96403.31;;;3.04;100.00
11621;BME280;5866;49.094;11.900;2023-12-07T01:05:04;96401.97;;;2.75;100.00
11621;BME280;5866;49.094;11.900;2023-12-07T01:07:33;96407.53;;;2.47;100.00
11621;BME280;5866;49.094;11.900;2023-12-07T01:10:00;96402.28;;;2.47;100.00
11621;BME280;5866;49.094;11.900;2023-12-07T01:12:28;96403.75;;;2.51;100.00
11621;BME280;5866;49.094;11.900;2023-12-07T01:14:57;96406.44;;;2.62;100.00
11621;BME280;5866;49.094;11.900;2023-12-07T01:17:25;96418.44;;;2.40;100.00
11621;BME280;5866;49.094;11.900;2023-12-07T01:19:52;96425.09;;;2.57;100.00
11621;BME280;5866;49.094;11.900;2023-12-07T01:22:20;96417.81;;;2.12;100.00
11621;BME280;5866;49.094;11.900;2023-12-07T01:24:48;96430.16;;;2.22;100.00
11621;BME280;5866;49.094;11.900;2023-12-07T01:27:16;96426.19;;;2.17;100.00
11621;BME280;5866;49.094;11.900;2023-12-07T01:29:44;96436.88;;;2.01;100.00
11621;BME280;5866;49.094;11.900;2023-12-07T01:32:13;96438.13;;;1.83;100.00
11621;BME280;5866;49.094;11.900;2023-12-07T01:34:41;96441.59;;;2.09;100.00
11621;BME280;5866;49.094;11.900;2023-12-07T01:37:08;96439.91;;;2.20;100.00
11621;BME280;5866;49.094;11.900;2023-12-07T01:39:36;96431.41;;;2.42;100.00
11621;BME280;5866;49.094;11.900;2023-12-07T01:42:03;96439.34;;;2.77;100.00
11621;BME280;5866;49.094;11.900;2023-12-07T01:44:31;96442.56;;;2.57;100.00
11621;BME280;5866;49.094;11.900;2023-12-07T01:46:59;96441.22;;;2.51;100.00
11621;BME280;5866;49.094;11.900;2023-12-07T01:49:28;96450.66;;;2.28;100.00
11621;BME280;5866;49.094;11.900;2023-12-07T01:51:56;96449.63;;;2.31;100.00
11621;BME280;5866;49.094;11.900;2023-12-07T01:54:25;96459.81;;;2.72;100.00
11621;BME280;5866;49.094;11.900;2023-12-07T01:56:53;96460.91;;;2.57;100.00
11621;BME280;5866;49.094;11.900;2023-12-07T01:59:22;96458.00;;;2.85;100.00
11621;BME280;5866;49.094;11.900;2023-12-07T02:01:50;96461.13;;;2.28;100.00
11621;BME280;5866;49.094;11.900;2023-12-07T02:04:18;96455.50;;;2.34;100.00
11621;BME280;5866;49.094;11.900;2023-12-07T02:06:47;96467.94;;;2.18;100.00
11621;BME280;5866;49.094;11.900;2023-12-07T02:09:15;96464.69;;;2.40;100.00
11621;BME280;5866;49.094;11.900;2023-12-07T02:11:43;96466.38;;;2.16;100.00
11621;BME280;5866;49.094;11.900;2023-12-07T02:14:11;96467.09;;;2.05;100.00
11621;BME280;5866;49.094;11.900;2023-12-07T02:16:43;96474.56;;;2.11;100.00
11621;BME280;5866;49.094;11.900;2023-12-07T02:19:21;96465.97;;;2.34;100.00
11621;BME280;5866;49.094;11.900;2023-12-07T02:21:56;96463.03;;;2.26;100.00
11621;BME280;5866;49.094;11.900;2023-12-07T02:24:27;96467.63;;;2.35;100.00
11621;BME280;5866;49.094;11.900;2023-12-07T02:27:01;96468.06;;;2.04;100.00
11621;BME280;5866;49.094;11.900;2023-12-07T02:29:29;96475.16;;;2.40;100.00
11621;BME280;5866;49.094;11.900;2023-12-07T02:31:56;96477.97;;;1.74;100.00
11621;BME280;5866;49.094;11.900;2023-12-07T02:34:24;96485.00;;;1.74;100.00
11621;BME280;5866;49.094;11.900;2023-12-07T02:36:53;96480.69;;;1.85;100.00
11621;BME280;5866;49.094;11.900;2023-12-07T02:39:23;96475.47;;;1.85;100.00
11621;BME280;5866;49.094;11.900;2023-12-07T02:41:51;96472.03;;;1.97;100.00
11621;BME280;5866;49.094;11.900;2023-12-07T02:44:21;96481.56;;;2.11;100.00
11621;BME280;5866;49.094;11.900;2023-12-07T02:46:49;96488.56;;;2.10;100.00
11621;BME280;5866;49.094;11.900;2023-12-07T02:49:16;96485.09;;;1.97;100.00
11621;BME280;5866;49.094;11.900;2023-12-07T02:51:44;96481.97;;;1.80;100.00
11621;BME280;5866;49.094;11.900;2023-12-07T02:54:11;96483.75;;;2.29;100.00
11621;BME280;5866;49.094;11.900;2023-12-07T02:56:39;96482.78;;;2.43;100.00
11621;BME280;5866;49.094;11.900;2023-12-07T02:59:07;96479.13;;;2.46;100.00
11621;BME280;5866;49.094;11.900;2023-12-07T03:01:35;96480.19;;;2.30;100.00
11621;BME280;5866;49.094;11.900;2023-12-07T03:04:03;96478.72;;;2.26;100.00
11621;BME280;5866;49.094;11.900;2023-12-07T03:06:31;96489.72;;;2.31;100.00
11621;BME280;5866;49.094;11.900;2023-12-07T03:08:58;96484.38;;;2.08;100.00
11621;BME280;5866;49.094;11.900;2023-12-07T03:11:26;96483.56;;;2.32;100.00
11621;BME280;5866;49.094;11.900;2023-12-07T03:13:54;96477.78;;;2.27;100.00
11621;BME280;5866;49.094;11.900;2023-12-07T03:16:21;96475.56;;;2.59;100.00
11621;BME280;5866;49.094;11.900;2023-12-07T03:18:50;96476.22;;;2.37;100.00
11621;BME280;5866;49.094;11.900;2023-12-07T03:21:18;96483.94;;;2.26;100.00
11621;BME280;5866;49.094;11.900;2023-12-07T03:23:45;96483.16;;;2.13;100.00
11621;BME280;5866;49.094;11.900;2023-12-07T03:26:13;96487.25;;;2.66;100.00
11621;BME280;5866;49.094;11.900;2023-12-07T03:28:40;96481.94;;;3.51;100.00
11621;BME280;5866;49.094;11.900;2023-12-07T03:31:08;96490.72;;;2.67;100.00
11621;BME280;5866;49.094;11.900;2023-12-07T03:33:35;96501.66;;;2.10;100.00
11621;BME280;5866;49.094;11.900;2023-12-07T03:36:07;96501.06;;;2.68;100.00
11621;BME280;5866;49.094;11.900;2023-12-07T03:38:34;96505.84;;;2.51;100.00
11621;BME280;5866;49.094;11.900;2023-12-07T03:41:02;96500.69;;;2.62;100.00
11621;BME280;5866;49.094;11.900;2023-12-07T03:43:30;96501.75;;;2.09;100.00
11621;BME280;5866;49.094;11.900;2023-12-07T03:45:57;96508.41;;;1.75;100.00
11621;BME280;5866;49.094;11.900;2023-12-07T03:48:25;96518.44;;;1.69;100.00
11621;BME280;5866;49.094;11.900;2023-12-07T03:50:53;96513.81;;;1.59;100.00
11621;BME280;5866;49.094;11.900;2023-12-07T03:53:22;96520.47;;;1.90;100.00
11621;BME280;5866;49.094;11.900;2023-12-07T03:55:49;96521.66;;;2.36;100.00
11621;BME280;5866;49.094;11.900;2023-12-07T03:58:17;96514.94;;;2.58;100.00
11621;BME280;5866;49.094;11.900;2023-12-07T04:00:45;96522.88;;;2.69;100.00
11621;BME280;5866;49.094;11.900;2023-12-07T04:03:12;96521.00;;;2.58;100.00
11621;BME280;5866;49.094;11.900;2023-12-07T04:05:40;96524.09;;;1.75;100.00
11621;BME280;5866;49.094;11.900;2023-12-07T04:08:08;96533.13;;;1.84;100.00
11621;BME280;5866;49.094;11.900;2023-12-07T04:10:36;96524.38;;;2.22;100.00
11621;BME280;5866;49.094;11.900;2023-12-07T04:13:04;96522.81;;;1.68;100.00
11621;BME280;5866;49.094;11.900;2023-12-07T04:15:32;96529.63;;;1.71;100.00
11621;BME280;5866;49.094;11.900;2023-12-07T04:18:00;96536.41;;;1.60;100.00
11621;BME280;5866;49.094;11.900;2023-12-07T04:20:29;96537.69;;;1.80;100.00
11621;BME280;5866;49.094;11.900;2023-12-07T04:22:56;96546.59;;;1.51;100.00
11621;BME280;5866;49.094;11.900;2023-12-07T04:25:24;96546.34;;;2.07;100.00
11621;BME280;5866;49.094;11.900;2023-12-07T04:27:52;96532.31;;;2.21;100.00
11621;BME280;5866;49.094;11.900;2023-12-07T04:30:20;96539.88;;;2.25;100.00
11621;BME280;5866;49.094;11.900;2023-12-07T04:32:48;96537.66;;;2.57;100.00
11621;BME280;5866;49.094;11.900;2023-12-07T04:35:15;96538.84;;;2.40;100.00
11621;BME280;5866;49.094;11.900;2023-12-07T04:37:43;96539.44;;;2.57;100.00
11621;BME280;5866;49.094;11.900;2023-12-07T04:40:11;96540.72;;;2.38;100.00
11621;BME280;5866;49.094;11.900;2023-12-07T04:42:39;96537.13;;;2.52;100.00
11621;BME280;5866;49.094;11.900;2023-12-07T04:45:09;96539.03;;;2.25;100.00
11621;BME280;5866;49.094;11.900;2023-12-07T04:47:37;96532.00;;;2.51;100.00
11621;BME280;5866;49.094;11.900;2023-12-07T04:50:05;96545.72;;;2.41;100.00
11621;BME280;5866;49.094;11.900;2023-12-07T04:52:32;96548.06;;;3.07;100.00
11621;BME280;5866;49.094;11.900;2023-12-07T04:55:02;96547.00;;;2.23;100.00
11621;BME280;5866;49.094;11.900;2023-12-07T04:57:30;96550.34;;;2.51;100.00
11621;BME280;5866;49.094;11.900;2023-12-07T04:59:57;96551.81;;;3.16;100.00
11621;BME280;5866;49.094;11.900;2023-12-07T05:02:26;96547.09;;;3.08;100.00
11621;BME280;5866;49.094;11.900;2023-12-07T05:04:54;96543.19;;;2.78;100.00
11621;BME280;5866;49.094;11.900;2023-12-07T05:07:21;96550.41;;;3.23;100.00
11621;BME280;5866;49.094;11.900;2023-12-07T05:09:50;96555.41;;;3.39;100.00
11621;BME280;5866;49.094;11.900;2023-12-07T05:12:17;96550.88;;;4.34;100.00
11621;BME280;5866;49.094;11.900;2023-12-07T05:14:45;96543.03;;;4.45;100.00
11621;BME280;5866;49.094;11.900;2023-12-07T05:17:13;96549.25;;;4.55;100.00
11621;BME280;5866;49.094;11.900;2023-12-07T05:19:43;96547.59;;;4.54;100.00
11621;BME280;5866;49.094;11.900;2023-12-07T05:22:11;96550.22;;;4.76;100.00
11621;BME280;5866;49.094;11.900;2023-12-07T05:24:39;96546.44;;;4.69;100.00
11621;BME280;5866;49.094;11.900;2023-12-07T05:27:06;96549.88;;;4.58;100.00
11621;BME280;5866;49.094;11.900;2023-12-07T05:29:34;96544.00;;;4.55;100.00
11621;BME280;5866;49.094;11.900;2023-12-07T05:32:05;96560.25;;;3.32;100.00
11621;BME280;5866;49.094;11.900;2023-12-07T05:34:34;96567.84;;;3.48;100.00
11621;BME280;5866;49.094;11.900;2023-12-07T05:37:03;96567.97;;;3.10;100.00
11621;BME280;5866;49.094;11.900;2023-12-07T05:39:31;96568.56;;;2.65;100.00
11621;BME280;5866;49.094;11.900;2023-12-07T05:41:59;96569.81;;;2.59;100.00
11621;BME280;5866;49.094;11.900;2023-12-07T05:44:26;96576.19;;;2.30;100.00
11621;BME280;5866;49.094;11.900;2023-12-07T05:46:54;96579.69;;;1.91;100.00
11621;BME280;5866;49.094;11.900;2023-12-07T05:49:21;96583.28;;;1.76;100.00
11621;BME280;5866;49.094;11.900;2023-12-07T05:51:49;96578.09;;;1.89;100.00
11621;BME280;5866;49.094;11.900;2023-12-07T05:54:20;96582.78;;;1.71;100.00
11621;BME280;5866;49.094;11.900;2023-12-07T05:56:48;96589.53;;;1.61;100.00
11621;BME280;5866;49.094;11.900;2023-12-07T05:59:16;96591.97;;;1.77;100.00
11621;BME280;5866;49.094;11.900;2023-12-07T06:01:44;96584.69;;;1.82;100.00
11621;BME280;5866;49.094;11.900;2023-12-07T06:04:11;96584.19;;;2.02;100.00
11621;BME280;5866;49.094;11.900;2023-12-07T06:06:39;96579.53;;;2.19;100.00
11621;BME280;5866;49.094;11.900;2023-12-07T06:09:07;96576.06;;;2.19;100.00
11621;BME280;5866;49.094;11.900;2023-12-07T06:11:36;96582.66;;;1.73;100.00
11621;BME280;5866;49.094;11.900;2023-12-07T06:14:04;96585.56;;;1.68;100.00
11621;BME280;5866;49.094;11.900;2023-12-07T06:16:32;96586.63;;;1.78;100.00
11621;BME280;5866;49.094;11.900;2023-12-07T06:19:00;96581.53;;;2.54;100.00
11621;BME280;5866;49.094;11.900;2023-12-07T06:21:28;96582.22;;;3.06;100.00
11621;BME280;5866;49.094;11.900;2023-12-07T06:23:56;96574.63;;;2.90;100.00
11621;BME280;5866;49.094;11.900;2023-12-07T06:26:25;96579.41;;;3.09;100.00
11621;BME280;5866;49.094;11.900;2023-12-07T06:28:54;96583.31;;;3.27;100.00
11621;BME280;5866;49.094;11.900;2023-12-07T06:31:21;96578.25;;;3.49;100.00
11621;BME280;5866;49.094;11.900;2023-12-07T06:33:49;96579.19;;;1.99;100.00
11621;BME280;5866;49.094;11.900;2023-12-07T06:36:20;96577.25;;;1.76;100.00
11621;BME280;5866;49.094;11.900;2023-12-07T06:38:48;96585.06;;;1.49;100.00
11621;BME280;5866;49.094;11.900;2023-12-07T06:41:16;96579.91;;;1.61;100.00
11621;BME280;5866;49.094;11.900;2023-12-07T06:43:43;96581.34;;;1.80;100.00
11621;BME280;5866;49.094;11.900;2023-12-07T06:46:13;96590.41;;;1.74;100.00
11621;BME280;5866;49.094;11.900;2023-12-07T06:48:42;96592.22;;;1.33;100.00
11621;BME280;5866;49.094;11.900;2023-12-07T06:51:10;96592.03;;;1.36;100.00
11621;BME280;5866;49.094;11.900;2023-12-07T06:53:38;96599.28;;;1.98;100.00
11621;BME280;5866;49.094;11.900;2023-12-07T06:56:08;96589.44;;;1.36;100.00
11621;BME280;5866;49.094;11.900;2023-12-07T06:58:35;96591.84;;;1.39;100.00
11621;BME280;5866;49.094;11.900;2023-12-07T07:01:03;96593.19;;;1.32;100.00
11621;BME280;5866;49.094;11.900;2023-12-07T07:03:32;96593.41;;;1.15;100.00
11621;BME280;5866;49.094;11.900;2023-12-07T07:06:01;96592.88;;;1.90;100.00
11621;BME280;5866;49.094;11.900;2023-12-07T07:08:29;96592.84;;;2.54;100.00
11621;BME280;5866;49.094;11.900;2023-12-07T07:10:57;96592.59;;;3.20;100.00
11621;BME280;5866;49.094;11.900;2023-12-07T07:13:24;96591.72;;;3.32;100.00
11621;BME280;5866;49.094;11.900;2023-12-07T07:15:52;96587.63;;;3.64;100.00
11621;BME280;5866;49.094;11.900;2023-12-07T07:18:21;96600.44;;;3.56;100.00
11621;BME280;5866;49.094;11.900;2023-12-07T07:20:52;96596.19;;;3.43;100.00
11621;BME280;5866;49.094;11.900;2023-12-07T07:23:19;96600.69;;;2.54;100.00
11621;BME280;5866;49.094;11.900;2023-12-07T07:25:47;96614.34;;;1.95;100.00
11621;BME280;5866;49.094;11.900;2023-12-07T07:28:14;96615.72;;;2.13;100.00
11621;BME280;5866;49.094;11.900;2023-12-07T07:30:42;96605.75;;;2.05;100.00
11621;BME280;5866;49.094;11.900;2023-12-07T07:33:09;96603.56;;;1.73;100.00
11621;BME280;5866;49.094;11.900;2023-12-07T07:35:37;96606.59;;;1.26;100.00
11621;BME280;5866;49.094;11.900;2023-12-07T07:38:06;96610.75;;;1.56;100.00
11621;BME280;5866;49.094;11.900;2023-12-07T07:40:33;96612.88;;;2.03;100.00
11621;BME280;5866;49.094;11.900;2023-12-07T07:43:02;96607.34;;;1.42;100.00
11621;BME280;5866;49.094;11.900;2023-12-07T07:45:29;96621.19;;;1.30;100.00
11621;BME280;5866;49.094;11.900;2023-12-07T07:47:57;96618.25;;;1.48;100.00
11621;BME280;5866;49.094;11.900;2023-12-07T07:50:25;96620.03;;;1.34;100.00
11621;BME280;5866;49.094;11.900;2023-12-07T07:52:52;96625.63;;;1.95;100.00
11621;BME280;5866;49.094;11.900;2023-12-07T07:55:21;96626.34;;;1.97;100.00
11621;BME280;5866;49.094;11.900;2023-12-07T07:57:49;96629.91;;;1.43;100.00
11621;BME280;5866;49.094;11.900;2023-12-07T08:00:16;96632.75;;;1.12;100.00
11621;BME280;5866;49.094;11.900;2023-12-07T08:02:45;96645.75;;;0.85;100.00
11621;BME280;5866;49.094;11.900;2023-12-07T08:05:13;96640.41;;;0.72;100.00
11621;BME280;5866;49.094;11.900;2023-12-07T08:07:41;96645.44;;;0.75;100.00
11621;BME280;5866;49.094;11.900;2023-12-07T08:10:08;96638.28;;;0.65;100.00
11621;BME280;5866;49.094;11.900;2023-12-07T08:12:39;96644.56;;;0.47;100.00
11621;BME280;5866;49.094;11.900;2023-12-07T08:15:07;96650.63;;;0.47;100.00
11621;BME280;5866;49.094;11.900;2023-12-07T08:17:37;96642.72;;;0.49;100.00
11621;BME280;5866;49.094;11.900;2023-12-07T08:20:06;96642.28;;;0.70;100.00
11621;BME280;5866;49.094;11.900;2023-12-07T08:22:35;96643.59;;;0.92;100.00
11621;BME280;5866;49.094;11.900;2023-12-07T08:25:03;96640.97;;;0.92;100.00
11621;BME280;5866;49.094;11.900;2023-12-07T08:27:38;96639.66;;;0.99;100.00
11621;BME280;5866;49.094;11.900;2023-12-07T08:30:08;96637.38;;;1.35;100.00
11621;BME280;5866;49.094;11.900;2023-12-07T08:32:36;96629.50;;;1.63;100.00
11621;BME280;5866;49.094;11.900;2023-12-07T08:35:05;96634.03;;;2.90;100.00
11621;BME280;5866;49.094;11.900;2023-12-07T08:37:33;96634.44;;;2.59;100.00
11621;BME280;5866;49.094;11.900;2023-12-07T08:40:00;96623.75;;;3.12;100.00
11621;BME280;5866;49.094;11.900;2023-12-07T08:42:28;96626.91;;;3.53;100.00
11621;BME280;5866;49.094;11.900;2023-12-07T08:44:59;96629.81;;;2.87;100.00
11621;BME280;5866;49.094;11.900;2023-12-07T08:47:26;96634.59;;;3.67;100.00
11621;BME280;5866;49.094;11.900;2023-12-07T08:49:56;96635.50;;;3.55;100.00
11621;BME280;5866;49.094;11.900;2023-12-07T08:52:24;96636.56;;;3.40;100.00
11621;BME280;5866;49.094;11.900;2023-12-07T08:55:07;96640.63;;;2.58;100.00
11621;BME280;5866;49.094;11.900;2023-12-07T08:57:35;96640.50;;;3.58;100.00
11621;BME280;5866;49.094;11.900;2023-12-07T09:00:06;96644.34;;;4.01;100.00
11621;BME280;5866;49.094;11.900;2023-12-07T09:02:34;96643.09;;;4.42;100.00
11621;BME280;5866;49.094;11.900;2023-12-07T09:05:13;96635.28;;;4.86;100.00
11621;BME280;5866;49.094;11.900;2023-12-07T09:07:40;96635.72;;;6.02;100.00
11621;BME280;5866;49.094;11.900;2023-12-07T09:10:09;96635.91;;;5.67;100.00
11621;BME280;5866;49.094;11.900;2023-12-07T09:12:37;96631.47;;;5.68;100.00
11621;BME280;5866;49.094;11.900;2023-12-07T09:15:08;96635.88;;;6.32;100.00
11621;BME280;5866;49.094;11.900;2023-12-07T09:17:37;96632.66;;;7.11;96.75
11621;BME280;5866;49.094;11.900;2023-12-07T09:20:06;96622.28;;;7.59;91.32
11621;BME280;5866;49.094;11.900;2023-12-07T09:22:38;96626.25;;;7.74;87.27
11621;BME280;5866;49.094;11.900;2023-12-07T09:25:08;96620.81;;;8.44;82.59
11621;BME280;5866;49.094;11.900;2023-12-07T09:27:36;96627.47;;;7.30;86.17
11621;BME280;5866;49.094;11.900;2023-12-07T09:30:06;96618.28;;;6.32;97.95
11621;BME280;5866;49.094;11.900;2023-12-07T09:32:37;96622.63;;;4.91;100.00
11621;BME280;5866;49.094;11.900;2023-12-07T09:35:06;96629.09;;;5.53;100.00
11621;BME280;5866;49.094;11.900;2023-12-07T09:37:34;96627.16;;;5.78;100.00
11621;BME280;5866;49.094;11.900;2023-12-07T09:40:02;96618.88;;;6.25;100.00
11621;BME280;5866;49.094;11.900;2023-12-07T09:42:32;96627.66;;;5.49;100.00
11621;BME280;5866;49.094;11.900;2023-12-07T09:45:03;96624.94;;;6.05;100.00
11621;BME280;5866;49.094;11.900;2023-12-07T09:47:34;96625.19;;;6.33;100.00
11621;BME280;5866;49.094;11.900;2023-12-07T09:50:05;96614.81;;;6.73;97.84
11621;BME280;5866;49.094;11.900;2023-12-07T09:52:33;96616.41;;;6.44;95.70
11621;BME280;5866;49.094;11.900;2023-12-07T09:55:02;96615.00;;;6.81;94.20
11621;BME280;5866;49.094;11.900;2023-12-07T09:57:30;96617.97;;;5.28;97.03
11621;BME280;5866;49.094;11.900;2023-12-07T09:59:58;96613.78;;;4.81;100.00
11621;BME280;5866;49.094;11.900;2023-12-07T10:02:26;96607.91;;;5.88;100.00
11621;BME280;5866;49.094;11.900;2023-12-07T10:05:05;96601.94;;;6.38;100.00
11621;BME280;5866;49.094;11.900;2023-12-07T10:07:34;96603.56;;;7.22;91.82
11621;BME280;5866;49.094;11.900;2023-12-07T10:10:04;96598.88;;;7.94;83.70
11621;BME280;5866;49.094;11.900;2023-12-07T10:12:34;96598.19;;;7.92;80.96
11621;BME280;5866;49.094;11.900;2023-12-07T10:15:11;96599.16;;;6.81;80.00
11621;BME280;5866;49.094;11.900;2023-12-07T10:17:47;96601.63;;;7.64;80.60
11621;BME280;5866;49.094;11.900;2023-12-07T10:20:18;96595.84;;;7.40;79.10
11621;BME280;5866;49.094;11.900;2023-12-07T10:23:00;96595.13;;;7.38;82.44
11621;BME280;5866;49.094;11.900;2023-12-07T10:25:29;96599.06;;;8.12;77.03
11621;BME280;5866;49.094;11.900;2023-12-07T10:27:57;96593.91;;;7.91;75.87
11621;BME280;5866;49.094;11.900;2023-12-07T10:30:26;96590.06;;;8.33;72.68
11621;BME280;5866;49.094;11.900;2023-12-07T10:32:54;96586.56;;;8.42;72.55
11621;BME280;5866;49.094;11.900;2023-12-07T10:35:23;96581.28;;;8.04;73.89
11621;BME280;5866;49.094;11.900;2023-12-07T10:37:51;96572.22;;;8.64;71.49
11621;BME280;5866;49.094;11.900;2023-12-07T10:40:19;96580.28;;;6.76;76.14
11621;BME280;5866;49.094;11.900;2023-12-07T10:42:48;96576.16;;;6.83;80.74
11621;BME280;5866;49.094;11.900;2023-12-07T10:45:16;96568.72;;;6.47;86.78
11621;BME280;5866;49.094;11.900;2023-12-07T10:47:44;96568.63;;;6.79;87.90
11621;BME280;5866;49.094;11.900;2023-12-07T10:50:14;96572.75;;;6.30;90.18
11621;BME280;5866;49.094;11.900;2023-12-07T10:52:51;96568.94;;;7.55;84.69
11621;BME280;5866;49.094;11.900;2023-12-07T10:55:21;96559.31;;;9.89;69.20
11621;BME280;5866;49.094;11.900;2023-12-07T10:57:52;96555.72;;;10.25;63.75
11621;BME280;5866;49.094;11.900;2023-12-07T11:00:20;96558.69;;;10.83;61.45
11621;BME280;5866;49.094;11.900;2023-12-07T11:03:06;96560.56;;;7.41;73.02
11621;BME280;5866;49.094;11.900;2023-12-07T11:05:34;96560.41;;;6.52;83.43
11621;BME280;5866;49.094;11.900;2023-12-07T11:08:06;96558.56;;;6.22;84.43
11621;BME280;5866;49.094;11.900;2023-12-07T11:10:39;96563.31;;;5.53;92.38
11621;BME280;5866;49.094;11.900;2023-12-07T11:13:14;96565.69;;;5.68;94.61
11621;BME280;5866;49.094;11.900;2023-12-07T11:15:44;96556.28;;;4.43;100.00
11621;BME280;5866;49.094;11.900;2023-12-07T11:18:12;96563.13;;;5.23;100.00
11621;BME280;5866;49.094;11.900;2023-12-07T11:20:41;96559.84;;;4.42;100.00
11621;BME280;5866;49.094;11.900;2023-12-07T11:23:12;96559.47;;;4.36;100.00
11621;BME280;5866;49.094;11.900;2023-12-07T11:25:43;96557.56;;;5.59;100.00
11621;BME280;5866;49.094;11.900;2023-12-07T11:28:11;96562.53;;;6.37;99.14
11621;BME280;5866;49.094;11.900;2023-12-07T11:30:42;96553.47;;;8.00;82.78
11621;BME280;5866;49.094;11.900;2023-12-07T11:33:10;96549.28;;;9.11;71.88
11621;BME280;5866;49.094;11.900;2023-12-07T11:36:03;96550.00;;;9.57;65.88
11621;BME280;5866;49.094;11.900;2023-12-07T11:38:32;96540.25;;;9.58;63.94
11621;BME280;5866;49.094;11.900;2023-12-07T11:41:00;96548.22;;;9.31;63.35
11621;BME280;5866;49.094;11.900;2023-12-07T11:43:44;96543.31;;;9.09;63.42
11621;BME280;5866;49.094;11.900;2023-12-07T11:46:13;96548.13;;;9.50;62.53
11621;BME280;5866;49.094;11.900;2023-12-07T11:48:48;96539.19;;;9.96;60.53
11621;BME280;5866;49.094;11.900;2023-12-07T11:51:16;96543.69;;;9.68;61.14
11621;BME280;5866;49.094;11.900;2023-12-07T11:53:46;96534.66;;;9.88;60.87
11621;BME280;5866;49.094;11.900;2023-12-07T11:56:16;96537.38;;;7.04;71.51
11621;BME280;5866;49.094;11.900;2023-12-07T11:58:46;96538.31;;;6.64;84.91
11621;BME280;5866;49.094;11.900;2023-12-07T12:01:16;96543.91;;;5.65;91.47
11621;BME280;5866;49.094;11.900;2023-12-07T12:03:44;96537.78;;;6.28;87.79
11621;BME280;5866;49.094;11.900;2023-12-07T12:06:12;96535.00;;;5.89;93.18
11621;BME280;5866;49.094;11.900;2023-12-07T12:08:40;96524.44;;;6.00;92.18
11621;BME280;5866;49.094;11.900;2023-12-07T12:11:10;96534.56;;;5.73;98.11
11621;BME280;5866;49.094;11.900;2023-12-07T12:13:38;96518.59;;;5.53;93.29
11621;BME280;5866;49.094;11.900;2023-12-07T12:16:07;96521.63;;;6.12;93.50
11621;BME280;5866;49.094;11.900;2023-12-07T12:18:34;96516.81;;;6.89;82.39
11621;BME280;5866;49.094;11.900;2023-12-07T12:21:03;96515.28;;;8.69;76.62
11621;BME280;5866;49.094;11.900;2023-12-07T12:23:30;96513.16;;;10.26;63.88
11621;BME280;5866;49.094;11.900;2023-12-07T12:25:58;96520.03;;;11.89;59.57
11621;BME280;5866;49.094;11.900;2023-12-07T12:28:28;96508.22;;;13.60;55.26
11621;BME280;5866;49.094;11.900;2023-12-07T12:30:59;96499.75;;;14.77;49.73
11621;BME280;5866;49.094;11.900;2023-12-07T12:33:27;96496.66;;;14.88;47.07
11621;BME280;5866;49.094;11.900;2023-12-07T12:36:02;96490.69;;;15.16;46.32
11621;BME280;5866;49.094;11.900;2023-12-07T12:38:30;96494.56;;;14.61;45.23
11621;BME280;5866;49.094;11.900;2023-12-07T12:41:08;96483.31;;;14.51;45.26
11621;BME280;5866;49.094;11.900;2023-12-07T12:43:37;96482.03;;;14.47;44.83
11621;BME280;5866;49.094;11.900;2023-12-07T12:46:05;96468.34;;;14.65;44.50
11621;BME280;5866;49.094;11.900;2023-12-07T12:48:33;96476.66;;;14.02;44.99
11621;BME280;5866;49.094;11.900;2023-12-07T12:51:07;96472.13;;;13.80;45.32
11621;BME280;5866;49.094;11.900;2023-12-07T12:53:35;96477.69;;;13.31;46.14
11621;BME280;5866;49.094;11.900;2023-12-07T12:56:03;96482.50;;;12.73;46.93
11621;BME280;5866;49.094;11.900;2023-12-07T12:58:31;96478.97;;;12.81;46.93
11621;BME280;5866;49.094;11.900;2023-12-07T13:01:00;96484.50;;;12.55;47.35
11621;BME280;5866;49.094;11.900;2023-12-07T13:03:30;96481.03;;;12.30;47.93
11621;BME280;5866;49.094;11.900;2023-12-07T13:05:58;96470.88;;;12.26;48.22
11621;BME280;5866;49.094;11.900;2023-12-07T13:08:28;96466.56;;;12.41;48.30
11621;BME280;5866;49.094;11.900;2023-12-07T13:10:59;96456.38;;;12.76;47.86